ARG1650 SABE-SAZN
Flight info
| Callsign | ARG1650 |
|---|---|
| Flight time | 1h 32m |
| Altitude | 38000 |
| Route | PAL9 TORUL UT654 BIXIM UT669 ROPON ROPON2Q |
| Aircraft | B38M/M-SDE1FGHILORVWXY/HB1 |
Departure
| Time | 2026-05-07 03:37 |
|---|---|
| Airport | Aeroparque Jorge Newbery (SABE) |
Arrival
| Time | 2026-05-07 05:10 |
|---|---|
| Airport | Presidente Perón International Airport (SAZN) |
| Time | Latitude | Longitude | Altitude | Speed | Heading |
|---|---|---|---|---|---|
| 2026-05-07 02:55 | -34.55763 | -58.41328 | 28 ft | 0 kts | 35° |
| 2026-05-07 03:18 | -34.55765 | -58.41330 | 55 ft | 3 kts | 35° |
| 2026-05-07 03:18 | -34.55787 | -58.41346 | 28 ft | 4 kts | 19° |
| 2026-05-07 03:19 | -34.55803 | -58.41345 | 28 ft | 3 kts | 303° |
| 2026-05-07 03:19 | -34.55817 | -58.41320 | 28 ft | 4 kts | 301° |
| 2026-05-07 03:19 | -34.55822 | -58.41309 | 28 ft | 0 kts | 301° |
| 2026-05-07 03:23 | -34.55817 | -58.41320 | 28 ft | 5 kts | 301° |
| 2026-05-07 03:23 | -34.55777 | -58.41396 | 28 ft | 14 kts | 304° |
| 2026-05-07 03:24 | -34.55726 | -58.41504 | 28 ft | 15 kts | 288° |
| 2026-05-07 03:24 | -34.55786 | -58.41591 | 28 ft | 9 kts | 185° |
| 2026-05-07 03:24 | -34.55815 | -58.41561 | 28 ft | 6 kts | 117° |
| 2026-05-07 03:24 | -34.55853 | -58.41470 | 28 ft | 17 kts | 117° |
| 2026-05-07 03:25 | -34.55912 | -58.41330 | 28 ft | 20 kts | 120° |
| 2026-05-07 03:25 | -34.55994 | -58.41190 | 28 ft | 21 kts | 127° |
| 2026-05-07 03:25 | -34.56084 | -58.41046 | 28 ft | 18 kts | 127° |
| 2026-05-07 03:25 | -34.56158 | -58.40914 | 28 ft | 20 kts | 120° |
| 2026-05-07 03:26 | -34.56211 | -58.40761 | 28 ft | 20 kts | 124° |
| 2026-05-07 03:26 | -34.56293 | -58.40612 | 28 ft | 22 kts | 126° |
| 2026-05-07 03:26 | -34.56389 | -58.40498 | 28 ft | 14 kts | 137° |
| 2026-05-07 03:26 | -34.56408 | -58.40477 | 28 ft | 0 kts | 138° |
| 2026-05-07 03:34 | -34.56410 | -58.40474 | 28 ft | 3 kts | 138° |
| 2026-05-07 03:34 | -34.56439 | -58.40443 | 28 ft | 8 kts | 138° |
| 2026-05-07 03:34 | -34.56488 | -58.40392 | 28 ft | 10 kts | 149° |
| 2026-05-07 03:35 | -34.56544 | -58.40421 | 28 ft | 10 kts | 258° |
| 2026-05-07 03:35 | -34.56532 | -58.40488 | 28 ft | 0 kts | 302° |
| 2026-05-07 03:35 | -34.56531 | -58.40489 | 28 ft | 0 kts | 302° |
| 2026-05-07 03:36 | -34.56531 | -58.40490 | 28 ft | 1 kts | 302° |
| 2026-05-07 03:36 | -34.56376 | -58.40771 | 28 ft | 81 kts | 304° |
| 2026-05-07 03:36 | -34.55914 | -58.41601 | 28 ft | 153 kts | 305° |
| 2026-05-07 03:37 | -34.55243 | -58.42786 | 445 ft | 184 kts | 307° |
| 2026-05-07 03:37 | -34.54489 | -58.44114 | 1212 ft | 192 kts | 301° |
| 2026-05-07 03:37 | -34.53577 | -58.45338 | 2066 ft | 210 kts | 321° |
| 2026-05-07 03:37 | -34.52085 | -58.45804 | 2858 ft | 229 kts | 359° |
| 2026-05-07 03:38 | -34.50518 | -58.45291 | 3850 ft | 253 kts | 21° |
| 2026-05-07 03:38 | -34.49132 | -58.43761 | 4594 ft | 283 kts | 47° |
| 2026-05-07 03:38 | -34.48202 | -58.41615 | 4718 ft | 293 kts | 53° |
| 2026-05-07 03:38 | -34.47085 | -58.39593 | 4548 ft | 285 kts | 45° |
| 2026-05-07 03:39 | -34.46112 | -58.37469 | 5118 ft | 296 kts | 68° |
| 2026-05-07 03:39 | -34.45892 | -58.34916 | 6112 ft | 313 kts | 95° |
| 2026-05-07 03:39 | -34.46681 | -58.32462 | 6930 ft | 324 kts | 127° |
| 2026-05-07 03:39 | -34.48373 | -58.30715 | 7817 ft | 320 kts | 160° |
| 2026-05-07 03:40 | -34.50485 | -58.30170 | 8700 ft | 306 kts | 192° |
| 2026-05-07 03:40 | -34.52428 | -58.30918 | 9561 ft | 286 kts | 224° |
| 2026-05-07 03:40 | -34.53710 | -58.32652 | 10210 ft | 278 kts | 248° |
| 2026-05-07 03:40 | -34.54783 | -58.34698 | 10760 ft | 297 kts | 241° |
| 2026-05-07 03:41 | -34.56088 | -58.36721 | 11373 ft | 311 kts | 238° |
| 2026-05-07 03:41 | -34.57506 | -58.38749 | 12161 ft | 317 kts | 237° |
| 2026-05-07 03:41 | -34.58975 | -58.40775 | 13002 ft | 322 kts | 236° |
| 2026-05-07 03:41 | -34.60489 | -58.42816 | 13772 ft | 327 kts | 236° |
| 2026-05-07 03:42 | -34.62032 | -58.44874 | 14520 ft | 332 kts | 235° |
| 2026-05-07 03:42 | -34.63602 | -58.46954 | 15263 ft | 337 kts | 235° |
| 2026-05-07 03:42 | -34.65204 | -58.49063 | 15981 ft | 341 kts | 235° |
| 2026-05-07 03:42 | -34.66817 | -58.51192 | 16695 ft | 346 kts | 235° |
| 2026-05-07 03:43 | -34.68452 | -58.53347 | 17392 ft | 350 kts | 235° |
| 2026-05-07 03:43 | -34.70096 | -58.55513 | 18046 ft | 355 kts | 235° |
| 2026-05-07 03:43 | -34.71784 | -58.57738 | 18644 ft | 359 kts | 235° |
| 2026-05-07 03:43 | -34.73483 | -58.59983 | 19247 ft | 362 kts | 235° |
| 2026-05-07 03:44 | -34.75193 | -58.62240 | 19838 ft | 366 kts | 235° |
| 2026-05-07 03:44 | -34.76931 | -58.64540 | 20428 ft | 370 kts | 235° |
| 2026-05-07 03:44 | -34.78679 | -58.66854 | 21021 ft | 373 kts | 236° |
| 2026-05-07 03:44 | -34.80440 | -58.69187 | 21669 ft | 376 kts | 236° |
| 2026-05-07 03:45 | -34.82195 | -58.71513 | 22221 ft | 380 kts | 236° |
| 2026-05-07 03:45 | -34.83944 | -58.73833 | 22762 ft | 383 kts | 236° |
| 2026-05-07 03:45 | -34.85758 | -58.76244 | 23297 ft | 386 kts | 236° |
| 2026-05-07 03:45 | -34.87581 | -58.78664 | 23742 ft | 390 kts | 236° |
| 2026-05-07 03:46 | -34.89418 | -58.81108 | 24212 ft | 392 kts | 236° |
| 2026-05-07 03:46 | -34.91267 | -58.83571 | 24662 ft | 395 kts | 236° |
| 2026-05-07 03:46 | -34.93119 | -58.86040 | 25103 ft | 397 kts | 236° |
| 2026-05-07 03:46 | -34.94991 | -58.88536 | 25542 ft | 400 kts | 236° |
| 2026-05-07 03:47 | -34.96879 | -58.91056 | 25974 ft | 403 kts | 236° |
| 2026-05-07 03:47 | -34.98773 | -58.93588 | 26392 ft | 405 kts | 235° |
| 2026-05-07 03:47 | -35.00660 | -58.96111 | 26828 ft | 408 kts | 235° |
| 2026-05-07 03:47 | -35.02576 | -58.98676 | 27258 ft | 410 kts | 235° |
| 2026-05-07 03:48 | -35.04503 | -59.01257 | 27663 ft | 413 kts | 235° |
| 2026-05-07 03:48 | -35.06446 | -59.03862 | 28099 ft | 416 kts | 236° |
| 2026-05-07 03:48 | -35.08385 | -59.06465 | 28551 ft | 417 kts | 236° |
| 2026-05-07 03:48 | -35.10343 | -59.09095 | 28943 ft | 419 kts | 236° |
| 2026-05-07 03:49 | -35.12311 | -59.11741 | 29332 ft | 422 kts | 236° |
| 2026-05-07 03:49 | -35.14287 | -59.14399 | 29715 ft | 424 kts | 236° |
| 2026-05-07 03:49 | -35.16278 | -59.17087 | 29997 ft | 429 kts | 235° |
| 2026-05-07 03:49 | -35.18295 | -59.19801 | 30229 ft | 433 kts | 235° |
| 2026-05-07 03:50 | -35.20322 | -59.22538 | 30576 ft | 435 kts | 235° |
| 2026-05-07 03:50 | -35.22355 | -59.25283 | 30849 ft | 438 kts | 235° |
| 2026-05-07 03:50 | -35.24402 | -59.28050 | 31160 ft | 440 kts | 235° |
| 2026-05-07 03:50 | -35.26459 | -59.30833 | 31456 ft | 442 kts | 235° |
| 2026-05-07 03:51 | -35.28527 | -59.33634 | 31761 ft | 446 kts | 235° |
| 2026-05-07 03:51 | -35.30616 | -59.36465 | 31993 ft | 450 kts | 235° |
| 2026-05-07 03:51 | -35.32715 | -59.39312 | 32309 ft | 451 kts | 235° |
| 2026-05-07 03:51 | -35.34820 | -59.42170 | 32578 ft | 454 kts | 235° |
| 2026-05-07 03:52 | -35.36792 | -59.45110 | 32833 ft | 450 kts | 241° |
| 2026-05-07 03:52 | -35.38641 | -59.48239 | 33087 ft | 453 kts | 241° |
| 2026-05-07 03:52 | -35.40493 | -59.51383 | 33412 ft | 454 kts | 241° |
| 2026-05-07 03:52 | -35.42330 | -59.54514 | 33779 ft | 454 kts | 241° |
| 2026-05-07 03:53 | -35.44171 | -59.57659 | 34110 ft | 453 kts | 241° |
| 2026-05-07 03:53 | -35.46003 | -59.60793 | 34498 ft | 453 kts | 242° |
| 2026-05-07 03:53 | -35.47838 | -59.63935 | 34800 ft | 453 kts | 242° |
| 2026-05-07 03:53 | -35.49675 | -59.67081 | 35126 ft | 452 kts | 242° |
| 2026-05-07 03:54 | -35.51498 | -59.70208 | 35473 ft | 450 kts | 242° |
| 2026-05-07 03:54 | -35.53318 | -59.73332 | 35843 ft | 448 kts | 243° |
| 2026-05-07 03:54 | -35.55129 | -59.76443 | 36193 ft | 447 kts | 243° |
| 2026-05-07 03:54 | -35.56923 | -59.79529 | 36517 ft | 445 kts | 243° |
| 2026-05-07 03:55 | -35.58719 | -59.82621 | 36835 ft | 444 kts | 243° |
| 2026-05-07 03:55 | -35.60507 | -59.85700 | 37139 ft | 442 kts | 243° |
| 2026-05-07 03:55 | -35.62290 | -59.88775 | 37487 ft | 441 kts | 243° |
| 2026-05-07 03:55 | -35.64045 | -59.91802 | 37643 ft | 440 kts | 244° |
| 2026-05-07 03:56 | -35.65836 | -59.94896 | 37603 ft | 437 kts | 244° |
| 2026-05-07 03:56 | -35.69325 | -60.00933 | 37601 ft | 436 kts | 244° |
| 2026-05-07 03:57 | -35.72832 | -60.07008 | 37599 ft | 436 kts | 244° |
| 2026-05-07 03:57 | -35.76347 | -60.13108 | 37596 ft | 436 kts | 244° |
| 2026-05-07 03:58 | -35.79262 | -60.18176 | 37695 ft | 436 kts | 245° |
| 2026-05-07 03:58 | -35.82729 | -60.24213 | 37606 ft | 428 kts | 245° |
| 2026-05-07 03:59 | -35.86160 | -60.30198 | 37609 ft | 429 kts | 245° |
| 2026-05-07 03:59 | -35.89605 | -60.36216 | 37601 ft | 429 kts | 245° |
| 2026-05-07 04:00 | -35.93021 | -60.42196 | 37606 ft | 429 kts | 245° |
| 2026-05-07 04:00 | -35.96456 | -60.48218 | 37664 ft | 428 kts | 246° |
| 2026-05-07 04:01 | -35.99864 | -60.54205 | 37606 ft | 426 kts | 246° |
| 2026-05-07 04:01 | -36.03275 | -60.60207 | 37615 ft | 427 kts | 246° |
| 2026-05-07 04:02 | -36.06687 | -60.66219 | 37619 ft | 427 kts | 246° |
| 2026-05-07 04:02 | -36.10071 | -60.72190 | 37619 ft | 427 kts | 246° |
| 2026-05-07 04:03 | -36.13470 | -60.78222 | 37642 ft | 427 kts | 246° |
| 2026-05-07 04:03 | -36.16850 | -60.84253 | 37629 ft | 427 kts | 246° |
| 2026-05-07 04:04 | -36.20233 | -60.90298 | 37633 ft | 427 kts | 246° |
| 2026-05-07 04:04 | -36.23617 | -60.96354 | 37634 ft | 427 kts | 246° |
| 2026-05-07 04:05 | -36.26981 | -61.02384 | 37635 ft | 427 kts | 246° |
| 2026-05-07 04:05 | -36.30353 | -61.08439 | 37637 ft | 430 kts | 245° |
| 2026-05-07 04:06 | -36.33755 | -61.14561 | 37643 ft | 431 kts | 245° |
| 2026-05-07 04:06 | -36.37152 | -61.20683 | 37645 ft | 431 kts | 245° |
| 2026-05-07 04:07 | -36.40546 | -61.26818 | 37655 ft | 431 kts | 245° |
| 2026-05-07 04:07 | -36.43930 | -61.32945 | 37653 ft | 431 kts | 245° |
| 2026-05-07 04:08 | -36.47303 | -61.39063 | 37652 ft | 433 kts | 245° |
| 2026-05-07 04:08 | -36.50709 | -61.45252 | 37662 ft | 433 kts | 245° |
| 2026-05-07 04:09 | -36.54104 | -61.51433 | 37673 ft | 433 kts | 245° |
| 2026-05-07 04:09 | -36.57495 | -61.57616 | 37686 ft | 433 kts | 245° |
| 2026-05-07 04:10 | -36.60885 | -61.63811 | 37684 ft | 433 kts | 245° |
| 2026-05-07 04:10 | -36.64260 | -61.69988 | 37692 ft | 433 kts | 245° |
| 2026-05-07 04:11 | -36.67647 | -61.76197 | 37689 ft | 433 kts | 245° |
| 2026-05-07 04:11 | -36.71019 | -61.82392 | 37688 ft | 433 kts | 245° |
| 2026-05-07 04:12 | -36.74396 | -61.88607 | 37699 ft | 433 kts | 245° |
| 2026-05-07 04:12 | -36.77780 | -61.94847 | 37732 ft | 437 kts | 245° |
| 2026-05-07 04:13 | -36.81201 | -62.01166 | 37707 ft | 440 kts | 245° |
| 2026-05-07 04:13 | -36.84623 | -62.07499 | 37709 ft | 440 kts | 245° |
| 2026-05-07 04:14 | -36.88025 | -62.13808 | 37707 ft | 440 kts | 245° |
| 2026-05-07 04:14 | -36.91445 | -62.20162 | 37721 ft | 440 kts | 245° |
| 2026-05-07 04:15 | -36.94863 | -62.26521 | 37726 ft | 442 kts | 245° |
| 2026-05-07 04:15 | -36.98287 | -62.32907 | 37725 ft | 443 kts | 245° |
| 2026-05-07 04:16 | -37.01719 | -62.39319 | 37726 ft | 443 kts | 245° |
| 2026-05-07 04:16 | -37.05143 | -62.45728 | 37725 ft | 443 kts | 245° |
| 2026-05-07 04:17 | -37.08540 | -62.52099 | 37723 ft | 443 kts | 245° |
| 2026-05-07 04:17 | -37.11958 | -62.58521 | 37729 ft | 443 kts | 245° |
| 2026-05-07 04:18 | -37.15365 | -62.64935 | 37728 ft | 443 kts | 245° |
| 2026-05-07 04:18 | -37.18774 | -62.71363 | 37723 ft | 440 kts | 245° |
| 2026-05-07 04:19 | -37.22151 | -62.77747 | 37723 ft | 438 kts | 245° |
| 2026-05-07 04:19 | -37.25502 | -62.84091 | 37746 ft | 438 kts | 244° |
| 2026-05-07 04:20 | -37.28867 | -62.90471 | 37722 ft | 438 kts | 244° |
| 2026-05-07 04:20 | -37.32226 | -62.96852 | 37724 ft | 438 kts | 244° |
| 2026-05-07 04:21 | -37.36646 | -63.06700 | 37725 ft | 430 kts | 252° |
| 2026-05-07 04:21 | -37.39234 | -63.13466 | 37756 ft | 430 kts | 251° |
| 2026-05-07 04:22 | -37.41803 | -63.20232 | 37721 ft | 432 kts | 251° |
| 2026-05-07 04:22 | -37.44390 | -63.27063 | 37721 ft | 432 kts | 251° |
| 2026-05-07 04:23 | -37.46972 | -63.33895 | 37720 ft | 432 kts | 251° |
| 2026-05-07 04:23 | -37.49542 | -63.40712 | 37718 ft | 432 kts | 251° |
| 2026-05-07 04:24 | -37.52117 | -63.47555 | 37729 ft | 432 kts | 251° |
| 2026-05-07 04:24 | -37.54682 | -63.54389 | 37726 ft | 431 kts | 251° |
| 2026-05-07 04:25 | -37.57235 | -63.61204 | 37721 ft | 431 kts | 251° |
| 2026-05-07 04:25 | -37.59791 | -63.68045 | 37717 ft | 431 kts | 251° |
| 2026-05-07 04:26 | -37.62345 | -63.74893 | 37746 ft | 432 kts | 251° |
| 2026-05-07 04:26 | -37.64902 | -63.81767 | 37719 ft | 432 kts | 251° |
| 2026-05-07 04:27 | -37.67454 | -63.88643 | 37721 ft | 433 kts | 251° |
| 2026-05-07 04:27 | -37.69989 | -63.95485 | 37722 ft | 433 kts | 251° |
| 2026-05-07 04:28 | -37.72532 | -64.02369 | 37728 ft | 433 kts | 251° |
| 2026-05-07 04:28 | -37.75082 | -64.09283 | 37733 ft | 434 kts | 251° |
| 2026-05-07 04:29 | -37.77624 | -64.16195 | 37727 ft | 434 kts | 251° |
| 2026-05-07 04:29 | -37.80167 | -64.23124 | 37732 ft | 434 kts | 251° |
| 2026-05-07 04:30 | -37.82700 | -64.30040 | 37736 ft | 434 kts | 251° |
| 2026-05-07 04:30 | -37.85236 | -64.36981 | 37758 ft | 434 kts | 251° |
| 2026-05-07 04:31 | -37.87756 | -64.43895 | 37739 ft | 436 kts | 251° |
| 2026-05-07 04:31 | -37.90291 | -64.50867 | 37740 ft | 436 kts | 251° |
| 2026-05-07 04:32 | -37.92817 | -64.57827 | 37741 ft | 436 kts | 251° |
| 2026-05-07 04:32 | -37.95343 | -64.64805 | 37745 ft | 435 kts | 251° |
| 2026-05-07 04:33 | -37.97865 | -64.71789 | 37746 ft | 435 kts | 251° |
| 2026-05-07 04:33 | -38.00366 | -64.78729 | 37750 ft | 435 kts | 251° |
| 2026-05-07 04:34 | -38.02877 | -64.85714 | 37748 ft | 435 kts | 251° |
| 2026-05-07 04:34 | -38.05391 | -64.92723 | 37744 ft | 435 kts | 251° |
| 2026-05-07 04:35 | -38.07894 | -64.99718 | 37766 ft | 436 kts | 251° |
| 2026-05-07 04:35 | -38.10401 | -65.06744 | 37752 ft | 436 kts | 251° |
| 2026-05-07 04:36 | -38.12881 | -65.13705 | 37756 ft | 436 kts | 251° |
| 2026-05-07 04:36 | -38.15376 | -65.20728 | 37759 ft | 436 kts | 251° |
| 2026-05-07 04:37 | -38.16617 | -65.24227 | 37640 ft | 429 kts | 251° |
| 2026-05-07 04:37 | -38.17826 | -65.27640 | 37303 ft | 421 kts | 252° |
| 2026-05-07 04:37 | -38.19024 | -65.31025 | 36854 ft | 417 kts | 251° |
| 2026-05-07 04:37 | -38.20211 | -65.34385 | 36307 ft | 416 kts | 251° |
| 2026-05-07 04:38 | -38.21377 | -65.37686 | 35794 ft | 414 kts | 252° |
| 2026-05-07 04:38 | -38.22554 | -65.41023 | 35307 ft | 412 kts | 252° |
| 2026-05-07 04:38 | -38.23723 | -65.44343 | 34831 ft | 410 kts | 252° |
| 2026-05-07 04:38 | -38.24887 | -65.47650 | 34354 ft | 409 kts | 252° |
| 2026-05-07 04:39 | -38.26046 | -65.50949 | 33878 ft | 408 kts | 252° |
| 2026-05-07 04:39 | -38.27206 | -65.54252 | 33304 ft | 408 kts | 252° |
| 2026-05-07 04:39 | -38.28363 | -65.57552 | 32784 ft | 406 kts | 252° |
| 2026-05-07 04:39 | -38.29495 | -65.60783 | 32323 ft | 403 kts | 252° |
| 2026-05-07 04:40 | -38.30633 | -65.64036 | 31898 ft | 401 kts | 251° |
| 2026-05-07 04:40 | -38.31768 | -65.67281 | 31418 ft | 399 kts | 251° |
| 2026-05-07 04:40 | -38.32894 | -65.70506 | 30951 ft | 398 kts | 251° |
| 2026-05-07 04:40 | -38.34014 | -65.73718 | 30495 ft | 396 kts | 251° |
| 2026-05-07 04:41 | -38.35132 | -65.76928 | 30051 ft | 395 kts | 251° |
| 2026-05-07 04:41 | -38.36243 | -65.80119 | 29554 ft | 394 kts | 251° |
| 2026-05-07 04:41 | -38.37351 | -65.83307 | 29064 ft | 391 kts | 251° |
| 2026-05-07 04:41 | -38.38449 | -65.86470 | 28629 ft | 388 kts | 252° |
| 2026-05-07 04:42 | -38.39520 | -65.89559 | 28219 ft | 385 kts | 252° |
| 2026-05-07 04:42 | -38.40609 | -65.92700 | 27788 ft | 382 kts | 252° |
| 2026-05-07 04:42 | -38.41665 | -65.95750 | 27411 ft | 379 kts | 252° |
| 2026-05-07 04:42 | -38.42725 | -65.98815 | 26978 ft | 377 kts | 252° |
| 2026-05-07 04:43 | -38.43776 | -66.01858 | 26583 ft | 374 kts | 252° |
| 2026-05-07 04:43 | -38.44818 | -66.04879 | 26186 ft | 371 kts | 252° |
| 2026-05-07 04:43 | -38.45854 | -66.07884 | 25803 ft | 368 kts | 252° |
| 2026-05-07 04:43 | -38.46884 | -66.10873 | 25417 ft | 366 kts | 252° |
| 2026-05-07 04:44 | -38.47901 | -66.13831 | 25044 ft | 363 kts | 252° |
| 2026-05-07 04:44 | -38.48899 | -66.16734 | 24679 ft | 360 kts | 252° |
| 2026-05-07 04:44 | -38.49903 | -66.19660 | 24312 ft | 358 kts | 252° |
| 2026-05-07 04:44 | -38.50902 | -66.22572 | 23944 ft | 356 kts | 253° |
| 2026-05-07 04:45 | -38.51890 | -66.25456 | 23611 ft | 354 kts | 252° |
| 2026-05-07 04:45 | -38.52875 | -66.28332 | 23214 ft | 352 kts | 252° |
| 2026-05-07 04:45 | -38.53848 | -66.31175 | 22793 ft | 349 kts | 252° |
| 2026-05-07 04:45 | -38.54815 | -66.34007 | 22430 ft | 345 kts | 252° |
| 2026-05-07 04:46 | -38.55751 | -66.36750 | 22085 ft | 338 kts | 252° |
| 2026-05-07 04:46 | -38.56683 | -66.39482 | 21759 ft | 332 kts | 252° |
| 2026-05-07 04:46 | -38.57597 | -66.42163 | 21421 ft | 325 kts | 252° |
| 2026-05-07 04:46 | -38.58492 | -66.44794 | 21097 ft | 319 kts | 252° |
| 2026-05-07 04:47 | -38.59072 | -66.46501 | 20885 ft | 315 kts | 252° |
| 2026-05-07 04:47 | -38.59941 | -66.49056 | 20574 ft | 311 kts | 252° |
| 2026-05-07 04:47 | -38.60797 | -66.51579 | 20262 ft | 308 kts | 252° |
| 2026-05-07 04:47 | -38.61645 | -66.54075 | 19961 ft | 305 kts | 252° |
| 2026-05-07 04:48 | -38.62484 | -66.56551 | 19654 ft | 302 kts | 252° |
| 2026-05-07 04:48 | -38.63310 | -66.58993 | 19361 ft | 299 kts | 251° |
| 2026-05-07 04:48 | -38.64135 | -66.61433 | 19063 ft | 299 kts | 251° |
| 2026-05-07 04:48 | -38.64965 | -66.63889 | 18768 ft | 303 kts | 251° |
| 2026-05-07 04:49 | -38.65808 | -66.66384 | 18449 ft | 305 kts | 250° |
| 2026-05-07 04:49 | -38.66646 | -66.68862 | 18144 ft | 302 kts | 251° |
| 2026-05-07 04:49 | -38.67474 | -66.71323 | 17803 ft | 300 kts | 249° |
| 2026-05-07 04:49 | -38.68297 | -66.73762 | 17476 ft | 297 kts | 249° |
| 2026-05-07 04:50 | -38.69108 | -66.76171 | 17171 ft | 293 kts | 252° |
| 2026-05-07 04:50 | -38.69910 | -66.78557 | 16881 ft | 290 kts | 251° |
| 2026-05-07 04:50 | -38.70700 | -66.80904 | 16621 ft | 285 kts | 250° |
| 2026-05-07 04:50 | -38.71479 | -66.83223 | 16309 ft | 282 kts | 249° |
| 2026-05-07 04:51 | -38.72255 | -66.85539 | 16018 ft | 284 kts | 249° |
| 2026-05-07 04:51 | -38.73038 | -66.87875 | 15731 ft | 288 kts | 249° |
| 2026-05-07 04:51 | -38.73828 | -66.90236 | 15454 ft | 288 kts | 248° |
| 2026-05-07 04:51 | -38.74622 | -66.92602 | 15149 ft | 289 kts | 247° |
| 2026-05-07 04:52 | -38.75414 | -66.94973 | 14877 ft | 288 kts | 247° |
| 2026-05-07 04:52 | -38.76201 | -66.97325 | 14567 ft | 286 kts | 247° |
| 2026-05-07 04:52 | -38.76980 | -66.99658 | 14273 ft | 283 kts | 247° |
| 2026-05-07 04:52 | -38.77752 | -67.01970 | 13990 ft | 280 kts | 246° |
| 2026-05-07 04:53 | -38.78514 | -67.04258 | 13704 ft | 278 kts | 246° |
| 2026-05-07 04:53 | -38.79258 | -67.06492 | 13404 ft | 275 kts | 246° |
| 2026-05-07 04:53 | -38.80006 | -67.08739 | 13108 ft | 272 kts | 246° |
| 2026-05-07 04:53 | -38.80744 | -67.10952 | 12822 ft | 268 kts | 245° |
| 2026-05-07 04:54 | -38.81470 | -67.13138 | 12539 ft | 265 kts | 246° |
| 2026-05-07 04:54 | -38.82187 | -67.15295 | 12295 ft | 260 kts | 246° |
| 2026-05-07 04:54 | -38.82888 | -67.17406 | 12018 ft | 257 kts | 246° |
| 2026-05-07 04:54 | -38.83582 | -67.19496 | 11768 ft | 253 kts | 245° |
| 2026-05-07 04:55 | -38.84270 | -67.21570 | 11515 ft | 254 kts | 245° |
| 2026-05-07 04:55 | -38.84961 | -67.23657 | 11250 ft | 254 kts | 244° |
| 2026-05-07 04:55 | -38.85653 | -67.25747 | 10990 ft | 254 kts | 244° |
| 2026-05-07 04:55 | -38.86346 | -67.27838 | 10726 ft | 254 kts | 244° |
| 2026-05-07 04:56 | -38.87033 | -67.29917 | 10486 ft | 252 kts | 244° |
| 2026-05-07 04:56 | -38.87717 | -67.31986 | 10267 ft | 251 kts | 243° |
| 2026-05-07 04:56 | -38.88398 | -67.34046 | 10025 ft | 250 kts | 243° |
| 2026-05-07 04:56 | -38.89075 | -67.36097 | 9819 ft | 248 kts | 243° |
| 2026-05-07 04:57 | -38.89740 | -67.38115 | 9552 ft | 248 kts | 243° |
| 2026-05-07 04:57 | -38.90411 | -67.40150 | 9273 ft | 246 kts | 243° |
| 2026-05-07 04:57 | -38.91077 | -67.42173 | 9024 ft | 244 kts | 243° |
| 2026-05-07 04:57 | -38.91737 | -67.44176 | 8769 ft | 243 kts | 243° |
| 2026-05-07 04:58 | -38.92392 | -67.46171 | 8519 ft | 241 kts | 243° |
| 2026-05-07 04:58 | -38.93039 | -67.48139 | 8267 ft | 240 kts | 243° |
| 2026-05-07 04:58 | -38.93686 | -67.50113 | 8020 ft | 239 kts | 243° |
| 2026-05-07 04:58 | -38.94027 | -67.52215 | 7732 ft | 246 kts | 261° |
| 2026-05-07 04:59 | -38.94099 | -67.54397 | 7466 ft | 242 kts | 260° |
| 2026-05-07 04:59 | -38.94177 | -67.56545 | 7217 ft | 240 kts | 260° |
| 2026-05-07 04:59 | -38.94249 | -67.58660 | 6974 ft | 234 kts | 260° |
| 2026-05-07 04:59 | -38.94316 | -67.60733 | 6738 ft | 231 kts | 260° |
| 2026-05-07 05:00 | -38.94380 | -67.62783 | 6502 ft | 228 kts | 259° |
| 2026-05-07 05:00 | -38.94440 | -67.64781 | 6264 ft | 225 kts | 259° |
| 2026-05-07 05:00 | -38.94501 | -67.66804 | 6016 ft | 222 kts | 259° |
| 2026-05-07 05:00 | -38.94560 | -67.68773 | 5794 ft | 225 kts | 259° |
| 2026-05-07 05:01 | -38.94620 | -67.70810 | 5554 ft | 230 kts | 259° |
| 2026-05-07 05:01 | -38.94680 | -67.72862 | 5307 ft | 231 kts | 259° |
| 2026-05-07 05:01 | -38.94740 | -67.74927 | 5069 ft | 230 kts | 259° |
| 2026-05-07 05:01 | -38.94798 | -67.76958 | 4932 ft | 224 kts | 259° |
| 2026-05-07 05:02 | -38.94854 | -67.78912 | 4811 ft | 214 kts | 259° |
| 2026-05-07 05:02 | -38.94904 | -67.80752 | 4703 ft | 200 kts | 258° |
| 2026-05-07 05:02 | -38.94933 | -67.82501 | 4635 ft | 189 kts | 259° |
| 2026-05-07 05:02 | -38.94931 | -67.84116 | 4581 ft | 173 kts | 259° |
| 2026-05-07 05:03 | -38.94931 | -67.85612 | 4430 ft | 162 kts | 258° |
| 2026-05-07 05:03 | -38.94932 | -67.86992 | 4320 ft | 151 kts | 258° |
| 2026-05-07 05:03 | -38.94936 | -67.88305 | 4214 ft | 145 kts | 258° |
| 2026-05-07 05:03 | -38.94939 | -67.89588 | 4117 ft | 143 kts | 258° |
| 2026-05-07 05:04 | -38.94942 | -67.90866 | 3925 ft | 143 kts | 258° |
| 2026-05-07 05:04 | -38.94944 | -67.92140 | 3752 ft | 141 kts | 259° |
| 2026-05-07 05:04 | -38.94944 | -67.93392 | 3624 ft | 140 kts | 259° |
| 2026-05-07 05:04 | -38.94941 | -67.94606 | 3450 ft | 128 kts | 259° |
| 2026-05-07 05:05 | -38.94938 | -67.95682 | 3290 ft | 115 kts | 258° |
| 2026-05-07 05:05 | -38.94933 | -67.96684 | 3286 ft | 115 kts | 259° |
| 2026-05-07 05:05 | -38.94913 | -67.97701 | 3115 ft | 112 kts | 259° |
| 2026-05-07 05:05 | -38.94898 | -67.98707 | 3003 ft | 116 kts | 259° |
| 2026-05-07 05:06 | -38.94902 | -67.99730 | 2905 ft | 113 kts | 260° |
| 2026-05-07 05:06 | -38.94918 | -68.00717 | 2831 ft | 110 kts | 259° |
| 2026-05-07 05:06 | -38.94924 | -68.01729 | 2703 ft | 116 kts | 261° |
| 2026-05-07 05:06 | -38.94913 | -68.02750 | 2550 ft | 113 kts | 262° |
| 2026-05-07 05:07 | -38.94900 | -68.03777 | 2405 ft | 115 kts | 263° |
| 2026-05-07 05:07 | -38.94896 | -68.04810 | 2288 ft | 116 kts | 263° |
| 2026-05-07 05:07 | -38.94878 | -68.05830 | 2202 ft | 112 kts | 263° |
| 2026-05-07 05:07 | -38.94894 | -68.06829 | 2059 ft | 112 kts | 264° |
| 2026-05-07 05:08 | -38.94904 | -68.07852 | 1835 ft | 120 kts | 265° |
| 2026-05-07 05:08 | -38.94917 | -68.08929 | 1700 ft | 121 kts | 266° |
| 2026-05-07 05:08 | -38.94894 | -68.10025 | 1537 ft | 124 kts | 266° |
| 2026-05-07 05:08 | -38.94912 | -68.11119 | 1406 ft | 126 kts | 267° |
| 2026-05-07 05:09 | -38.94882 | -68.12212 | 1297 ft | 114 kts | 261° |
| 2026-05-07 05:09 | -38.94897 | -68.13233 | 1083 ft | 122 kts | 263° |
| 2026-05-07 05:09 | -38.94907 | -68.14296 | 933 ft | 117 kts | 268° |
| 2026-05-07 05:09 | -38.94904 | -68.15234 | 904 ft | 89 kts | 270° |
| 2026-05-07 05:10 | -38.94903 | -68.15820 | 908 ft | 33 kts | 270° |
| 2026-05-07 05:10 | -38.94882 | -68.15965 | 909 ft | 9 kts | 284° |
| 2026-05-07 05:10 | -38.94891 | -68.15985 | 909 ft | 3 kts | 196° |
| 2026-05-07 05:10 | -38.94906 | -68.15979 | 909 ft | 2 kts | 125° |
| 2026-05-07 05:11 | -38.94906 | -68.15912 | 908 ft | 15 kts | 86° |
| 2026-05-07 05:11 | -38.94900 | -68.15710 | 907 ft | 28 kts | 89° |
| 2026-05-07 05:11 | -38.94901 | -68.15456 | 907 ft | 29 kts | 88° |
| 2026-05-07 05:11 | -38.94902 | -68.15190 | 904 ft | 25 kts | 95° |
| 2026-05-07 05:12 | -38.94974 | -68.15035 | 905 ft | 19 kts | 136° |
| 2026-05-07 05:12 | -38.95066 | -68.14920 | 908 ft | 13 kts | 132° |
| 2026-05-07 05:12 | -38.95090 | -68.14803 | 906 ft | 15 kts | 92° |
| 2026-05-07 05:12 | -38.95094 | -68.14661 | 906 ft | 17 kts | 90° |
| 2026-05-07 05:13 | -38.95093 | -68.14500 | 906 ft | 19 kts | 90° |
| 2026-05-07 05:13 | -38.95094 | -68.14334 | 906 ft | 21 kts | 90° |
| 2026-05-07 05:13 | -38.95094 | -68.14192 | 906 ft | 0 kts | 90° |
| 2026-05-07 05:13 | -38.95094 | -68.14179 | 906 ft | 3 kts | 90° |
| 2026-05-07 05:14 | -38.95094 | -68.14162 | 906 ft | 2 kts | 90° |
| 2026-05-07 05:14 | -38.95094 | -68.14130 | 906 ft | 5 kts | 90° |
| 2026-05-07 05:14 | -38.95094 | -68.14088 | 906 ft | 4 kts | 95° |
| 2026-05-07 05:14 | -38.95099 | -68.14077 | 906 ft | 1 kts | 131° |
| 2026-05-07 05:15 | -38.95113 | -68.14069 | 907 ft | 3 kts | 161° |
| 2026-05-07 05:15 | -38.95133 | -68.14069 | 906 ft | 4 kts | 180° |
| 2026-05-07 05:15 | -38.95150 | -68.14069 | 906 ft | 2 kts | 181° |
| 2026-05-07 05:15 | -38.95155 | -68.14069 | 906 ft | 0 kts | 181° |